Flight Track Log - Related Links

Times and Time Zones

All times are in EDT time to prevent confusion due to time zone crossing. See the EJA575 flight status page for this flight to view local times or setup timezone preferences in your user account.

Time Position Orientation Groundspeed Altitude Reporting Facility
EDT Latitude Longitude Course Direction KTS MPH feet Rate Location/Type
Mon 09:57:20 AM 36.0611 -115.1786 206° Southwest 191 220 3,500  Level Los Center
Mon 09:58:03 AM 36.0228 -115.2017 206° Southwest 219 252 5,300 2,073 Climbing Los Center
Mon 09:59:10 AM 35.9794 -115.2797 236° Southwest 272 313 7,300 1,924 Climbing Los Center
Mon 10:00:14 AM 35.9083 -115.2742 176° South 271 312 9,500 2,160 Climbing Los Center
Mon 10:01:15 AM 35.8542 -115.2111 137° Southeast 286 329 11,800 2,439 Climbing Los Center
Mon 10:02:17 AM 35.8247 -115.0906 107° East 307 353 14,500 2,226 Climbing Los Center
Mon 10:03:19 AM 35.8297 -114.9753 87° East 344 396 16,400 1,951 Climbing Los Center
Mon 10:04:20 AM 35.8397 -114.8547 84° East 353 406 18,500 1,805 Climbing Los Center
Mon 10:05:22 AM 35.8489 -114.7550 84° East 361 415 20,100 1,935 Climbing Los Center
Mon 10:06:24 AM 35.8622 -114.6053 84° East 367 422 22,500 1,839 Climbing Los Center
Mon 10:07:26 AM 35.8725 -114.4789 84° East 370 426 23,900 1,268 Climbing Los Center
Mon 10:08:27 AM 35.8850 -114.3461 83° East 382 440 25,100 1,268 Climbing Los Center
Mon 10:09:29 AM 35.8989 -114.1803 84° East 401 461 26,500 1,210 Climbing Los Center
Mon 10:10:31 AM 35.9103 -114.0414 84° East 407 468 27,600 1,065 Climbing Los Center
Mon 10:11:33 AM 35.9214 -113.8981 84° East 415 478 28,700 1,016 Climbing Los Center
Mon 10:12:35 AM 35.8931 -113.7600 104° East 417 480 29,700 1,024 Climbing Los Center
Mon 10:13:36 AM 35.8661 -113.6239 104° East 410 472 30,800 1,171 Climbing Los Center
Mon 10:14:38 AM 35.8339 -113.4944 107° East 410 472 32,100 1,403 Climbing Los Center
Mon 10:15:40 AM 35.7647 -113.3589 122° Southeast 391 450 33,700 1,452 Climbing Los Center
Mon 10:16:42 AM 35.7075 -113.2467 122° Southeast 389 448 35,100 1,452 Climbing Los Center
Mon 10:17:44 AM 35.6478 -113.1283 122° Southeast 386 444 36,700 1,500 Climbing Los Center
Mon 10:18:46 AM 35.5922 -113.0181 122° Southeast 380 437 38,200 1,403 Climbing Los Center
Mon 10:19:48 AM 35.5367 -112.9081 122° Southeast 376 433 39,600 1,268 Climbing Los Center
Mon 10:20:49 AM 35.4817 -112.7983 122° Southeast 378 435 40,800 683 Climbing Los Center
Mon 10:21:51 AM 35.4233 -112.6869 123° Southeast 385 443 41,000 109 Climbing Los Center
Mon 10:22:39 AM 35.3739 -112.5933 123° Southeast 404 465 41,000  Level Albuquerque Center
Mon 10:23:41 AM 35.3108 -112.4708 122° Southeast 419 482 41,000  Level Albuquerque Center
Mon 10:24:43 AM 35.2356 -112.3236 122° Southeast 425 489 41,000  Level Albuquerque Center
Mon 10:25:44 AM 35.1786 -112.1975 119° Southeast 425 489 41,000  Level Albuquerque Center
Mon 10:26:46 AM 35.1203 -112.0714 119° Southeast 428 493 41,000  Level Albuquerque Center
Mon 10:27:48 AM 35.0619 -111.9461 120° Southeast 427 491 41,000  Level Albuquerque Center
Mon 10:28:49 AM 35.0047 -111.8208 119° Southeast 426 490 41,000  Level Albuquerque Center
Mon 10:29:51 AM 34.9378 -111.6778 120° Southeast 426 490 41,000  Level Albuquerque Center
Mon 10:30:53 AM 34.8792 -111.5517 120° Southeast 427 491 41,000  Level Albuquerque Center
Mon 10:31:55 AM 34.8194 -111.4250 120° Southeast 428 493 41,000  Level Albuquerque Center
Mon 10:32:56 AM 34.7606 -111.2992 120° Southeast 429 494 41,000  Level Albuquerque Center
Mon 10:33:58 AM 34.7008 -111.1728 120° Southeast 429 494 41,000  Level Albuquerque Center
Mon 10:35:00 AM 34.6417 -111.0467 120° Southeast 429 494 41,000  Level Albuquerque Center
Mon 10:36:02 AM 34.5822 -110.9222 120° Southeast 427 491 41,000  Level Albuquerque Center
Mon 10:37:03 AM 34.5233 -110.7972 120° Southeast 426 490 41,000  Level Albuquerque Center
Mon 10:38:05 AM 34.4508 -110.6444 120° Southeast 431 496 41,000  Level Albuquerque Center
Mon 10:39:07 AM 34.3911 -110.5183 120° Southeast 431 496 41,000  Level Albuquerque Center
Mon 10:40:09 AM 34.3317 -110.3958 120° Southeast 434 499 41,000  Level Albuquerque Center
Mon 10:41:11 AM 34.2644 -110.2556 120° Southeast 433 498 41,000  Level Albuquerque Center
Mon 10:42:13 AM 34.2056 -110.1356 121° Southeast 434 499 41,000  Level Albuquerque Center
Mon 10:43:14 AM 34.1378 -109.9967 120° Southeast 432 497 41,000  Level Albuquerque Center
Mon 10:44:16 AM 34.0800 -109.8786 121° Southeast 429 494 41,000  Level Albuquerque Center
Mon 10:45:18 AM 34.0119 -109.7383 120° Southeast 433 498 41,000  Level Albuquerque Center
Mon 10:46:20 AM 33.9519 -109.6178 121° Southeast 437 503 41,000  Level Albuquerque Center
Mon 10:47:22 AM 33.8822 -109.4778 121° Southeast 437 503 41,000  Level Albuquerque Center
Mon 10:48:24 AM 33.8231 -109.3578 121° Southeast 438 504 41,000  Level Albuquerque Center
Mon 10:49:26 AM 33.7658 -109.2422 121° Southeast 430 495 41,000  Level Albuquerque Center
Mon 10:50:27 AM 33.6992 -109.1214 124° Southeast 430 495 41,000  Level Albuquerque Center
Mon 10:51:29 AM 33.6386 -108.9844 118° Southeast 430 495 41,000  Level Albuquerque Center
Mon 10:52:31 AM 33.5708 -108.8503 121° Southeast 425 489 41,000  Level Albuquerque Center
Mon 10:53:33 AM 33.5075 -108.7331 123° Southeast 421 484 41,000 -48 Level Albuquerque Center
Mon 10:54:35 AM 33.4506 -108.6094 119° Southeast 424 488 40,900 -1,065 Descending Albuquerque Center
Mon 10:55:37 AM 33.3889 -108.4936 122° Southeast 417 480 38,800 -2,129 Descending Albuquerque Center
Mon 10:56:39 AM 33.3247 -108.3736 123° Southeast 424 488 36,500 -2,177 Descending Albuquerque Center
Mon 10:57:41 AM 33.2647 -108.2553 121° Southeast 421 484 34,300 -1,694 Descending Albuquerque Center
Mon 10:58:43 AM 33.1842 -108.1172 125° Southeast 422 486 33,000 -629 Descending Albuquerque Center
Mon 10:59:45 AM 33.1006 -108.0169 135° Southeast 427 491 33,000  Level Albuquerque Center
Mon 11:00:47 AM 33.0203 -107.9153 133° Southeast 424 488 33,000  Level Albuquerque Center
Mon 11:01:49 AM 32.9419 -107.8158 133° Southeast 416 479 33,000  Level Albuquerque Center
Mon 11:02:51 AM 32.8603 -107.7142 134° Southeast 421 484 33,000 -97 Level Albuquerque Center
Mon 11:03:53 AM 32.7789 -107.6125 134° Southeast 424 488 32,800 -1,258 Descending Albuquerque Center
Mon 11:04:55 AM 32.6911 -107.5022 133° Southeast 429 494 30,400 -2,274 Descending Albuquerque Center
Mon 11:05:57 AM 32.6089 -107.3978 133° Southeast 432 497 28,100 -2,448 Descending Albuquerque Center
Mon 11:07:00 AM 32.5058 -107.2708 134° Southeast 443 510 25,300 -2,448 Descending Albuquerque Center
Mon 11:08:02 AM 32.4208 -107.1639 133° Southeast 436 502 23,000 -2,274 Descending Albuquerque Center
Mon 11:09:04 AM 32.3367 -107.0558 133° Southeast 417 480 20,600 -2,177 Descending Albuquerque Center
Mon 11:10:06 AM 32.2608 -106.9633 134° Southeast 394 453 18,500 -1,984 Descending Albuquerque Center
Mon 11:11:08 AM 32.1925 -106.8803 134° Southeast 380 437 16,500 -1,935 Descending Albuquerque Center
Mon 11:12:10 AM 32.1225 -106.7936 134° Southeast 368 423 14,500 -1,935 Descending Albuquerque Center
Mon 11:13:12 AM 32.0592 -106.7044 130° Southeast 357 411 12,500 -2,081 Descending Albuquerque Center
Mon 11:14:14 AM 32.0267 -106.5733 106° East 349 402 10,200 -1,615 Descending Albuquerque Center
Mon 11:15:22 AM 31.9981 -106.4592 106° East 289 333 9,000 -1,210 Descending Albuquerque Center
Mon 11:16:18 AM 31.9617 -106.4025 127° Southeast 271 312 7,700 -1,370 Descending Albuquerque Center
Mon 11:17:29 AM 31.8975 -106.3392 140° Southeast 214 246 6,100 -968 Descending Albuquerque Center
Mon 11:18:22 AM 31.8653 -106.3194 153° Southeast 197 227 5,700 -942 Descending Albuquerque Center
Mon 11:19:30 AM 31.8289 -106.3611 224° Southwest 121 139 4,200 -1,324 Descending Albuquerque Center
Mon 11:21:00 AM 31.8000 -106.3667 90° East  Level FlightAware
Mon 11:28:00 AM 31.8072 -106.3764 90° East  Level Estimated
Mon 11:29:00 AM 31.8072 -106.3764 90° East  Level Estimated
Mon 11:30:00 AM 31.8072 -106.3764 90° East  Level Estimated
Mon 11:31:00 AM 31.8072 -106.3764 90° East  Level Estimated

Login

Don't have an account? Register now (free) for customized features, flight alerts, and more!